Terminal Aerodrome Forecast
Issued by NWS

Home | Current Version | Previous Version | Text Only | Print | Product List | Glossary On
Versions: 1 2 3 4 5 6 7 8 9 10 11 12 13 14 15
000
FTUS44 KCRP 290000 AAA
TAFALI
TAF AMD
KALI 290058Z 2901/2924 15010KT P6SM FEW250
     FM290700 16005KT 3SM BR BKN005
     FM290900 16004KT 1SM BR OVC003
      TEMPO 2910/2914 1/2SM FG VV002
     FM291500 17014KT P6SM BKN012
     FM291700 16010KT P6SM SCT020=

USA.gov is the U.S. government's official web portal to all federal, state and local government web resources and services.